Time;durP1;ratioP1;P1;durP2;ratioP2;P2;SDS_P1;SDS_P2;PMS_P1;PMS_P2;Temp;Humidity;BMP_temperature;BMP_pressure;BME280_temperature;BME280_humidity;BME280_pressure;Samples;Min_cycle;Max_cycle;Signal;HPM_P1;HPM_P2
2023/11/30 00:01:19;;;;;;;4.78;3.30;;;-0.90;99.90;;;;;;5071367;27;20048;-33
2023/11/30 00:03:45;;;;;;;9.50;4.55;;;-0.80;99.90;;;;;;5075012;28;20036;-34
2023/11/30 00:06:11;;;;;;;8.73;5.57;;;-0.80;99.90;;;;;;5078124;28;20032;-34
2023/11/30 00:08:36;;;;;;;5.30;4.57;;;-0.90;99.90;;;;;;5075813;28;20029;-34
2023/11/30 00:11:05;;;;;;;5.35;3.58;;;-0.90;99.90;;;;;;5074895;28;20033;-42
2023/11/30 00:13:31;;;;;;;4.20;3.45;;;-0.90;99.90;;;;;;5079289;28;20031;-40
2023/11/30 00:15:56;;;;;;;5.80;4.32;;;-0.90;99.90;;;;;;5073594;28;20048;-40
2023/11/30 00:18:22;;;;;;;4.22;3.22;;;-0.90;99.90;;;;;;5076991;28;20036;-43
2023/11/30 00:20:47;;;;;;;5.13;3.88;;;-0.90;99.90;;;;;;5068308;28;20643;-41
2023/11/30 00:23:13;;;;;;;4.25;3.70;;;-1.00;99.90;;;;;;5075282;28;20029;-38
2023/11/30 00:25:39;;;;;;;5.38;4.05;;;-1.00;99.90;;;;;;5069976;28;20048;-39
2023/11/30 00:28:04;;;;;;;8.77;5.05;;;-1.00;99.90;;;;;;5078534;28;20446;-42
2023/11/30 00:30:30;;;;;;;5.57;4.18;;;-1.00;99.90;;;;;;5074704;28;20382;-34
2023/11/30 00:32:55;;;;;;;5.93;3.67;;;-1.00;99.90;;;;;;5073340;28;20491;-43
2023/11/30 00:35:21;;;;;;;6.28;4.72;;;-1.00;99.90;;;;;;5077351;28;20134;-42
2023/11/30 00:37:47;;;;;;;5.20;4.13;;;-1.10;99.90;;;;;;5075531;28;20039;-43
2023/11/30 00:40:12;;;;;;;6.32;4.55;;;-1.20;99.90;;;;;;5078981;28;20032;-39
2023/11/30 00:42:38;;;;;;;5.75;4.10;;;-1.10;99.90;;;;;;5078181;28;20068;-41
2023/11/30 00:45:04;;;;;;;4.13;3.75;;;-1.10;99.90;;;;;;5073519;28;20103;-40
2023/11/30 00:47:29;;;;;;;5.63;3.50;;;-1.10;99.90;;;;;;5076497;28;20437;-34
2023/11/30 00:49:55;;;;;;;6.72;4.15;;;-1.10;99.90;;;;;;5076652;28;20086;-40
2023/11/30 00:52:21;;;;;;;5.95;4.38;;;-1.20;99.90;;;;;;5070829;28;20760;-41
2023/11/30 00:54:46;;;;;;;7.20;4.10;;;-1.20;99.90;;;;;;5075589;28;20478;-43
2023/11/30 00:57:12;;;;;;;7.28;4.35;;;-1.20;99.90;;;;;;5071374;28;20025;-38
2023/11/30 00:59:37;;;;;;;3.75;3.42;;;-1.20;99.90;;;;;;5077969;28;20024;-41
2023/11/30 01:02:03;;;;;;;5.40;4.22;;;-1.20;99.90;;;;;;5070648;28;20036;-43
2023/11/30 01:04:28;;;;;;;5.82;4.45;;;-1.10;99.90;;;;;;5082714;28;20036;-34
2023/11/30 01:06:54;;;;;;;7.32;5.07;;;-1.10;99.90;;;;;;5075155;28;20050;-41
2023/11/30 01:09:20;;;;;;;7.80;4.63;;;-1.10;99.90;;;;;;5085495;28;20028;-39
2023/11/30 01:11:45;;;;;;;5.18;4.18;;;-1.10;99.90;;;;;;5072744;28;20036;-40
2023/11/30 01:14:11;;;;;;;8.90;4.43;;;-1.00;99.90;;;;;;5078402;28;20036;-39
2023/11/30 01:16:37;;;;;;;5.13;3.90;;;-1.00;99.90;;;;;;5076468;28;20033;-35
2023/11/30 01:19:03;;;;;;;7.43;4.65;;;-1.00;99.90;;;;;;5079630;28;20035;-32
2023/11/30 01:21:28;;;;;;;5.93;4.43;;;-1.10;99.90;;;;;;5083918;28;20048;-33
2023/11/30 01:23:54;;;;;;;4.30;3.90;;;-1.20;99.90;;;;;;5087056;28;20481;-33
2023/11/30 01:26:19;;;;;;;3.97;3.63;;;-1.20;99.90;;;;;;5081311;28;20060;-42
2023/11/30 01:28:45;;;;;;;5.82;4.47;;;-1.30;99.90;;;;;;5074880;28;20028;-42
2023/11/30 01:31:10;;;;;;;4.93;3.53;;;-1.30;99.90;;;;;;5082771;27;20050;-41
2023/11/30 01:33:36;;;;;;;3.78;3.38;;;-1.20;99.90;;;;;;5076066;28;20031;-39
2023/11/30 01:36:03;;;;;;;8.30;5.10;;;-1.20;99.90;;;;;;5074760;28;20055;-41
2023/11/30 01:38:30;;;;;;;3.38;3.13;;;-1.30;99.90;;;;;;5077995;28;20061;-35
2023/11/30 01:40:56;;;;;;;5.13;3.25;;;-1.30;99.90;;;;;;5076147;28;20036;-41
2023/11/30 01:43:22;;;;;;;6.20;3.28;;;-1.30;99.90;;;;;;5080586;28;20032;-43
2023/11/30 01:45:49;;;;;;;4.32;4.03;;;-1.30;99.90;;;;;;5072149;28;20033;-41
2023/11/30 01:48:16;;;;;;;5.90;4.05;;;-1.30;99.90;;;;;;5077149;28;20525;-36
2023/11/30 01:50:43;;;;;;;3.17;2.90;;;-1.40;99.90;;;;;;5080506;28;20035;-43
2023/11/30 01:53:09;;;;;;;3.72;3.25;;;-1.30;99.90;;;;;;5082095;28;20109;-40
2023/11/30 01:55:35;;;;;;;3.55;3.10;;;-1.30;99.90;;;;;;5083116;28;20055;-42
2023/11/30 01:58:02;;;;;;;5.13;3.70;;;-1.30;99.90;;;;;;5085941;28;20548;-38
2023/11/30 02:00:30;;;;;;;3.50;3.28;;;-1.40;99.90;;;;;;5080948;28;20034;-42
2023/11/30 02:02:57;;;;;;;5.45;4.00;;;-1.40;99.90;;;;;;5074314;28;20653;-41
2023/11/30 02:05:23;;;;;;;4.82;3.35;;;-1.30;99.90;;;;;;5076410;28;20028;-42
2023/11/30 02:07:48;;;;;;;6.32;3.80;;;-1.30;99.90;;;;;;5077290;28;20024;-42
2023/11/30 02:10:14;;;;;;;4.50;4.10;;;-1.40;99.90;;;;;;5079011;28;20470;-39
2023/11/30 02:12:40;;;;;;;2.75;2.63;;;-1.40;99.90;;;;;;5077996;28;20032;-41
2023/11/30 02:15:06;;;;;;;2.60;2.40;;;-1.30;99.90;;;;;;5078833;28;20070;-39
2023/11/30 02:17:31;;;;;;;5.10;3.20;;;-1.30;99.90;;;;;;5081081;28;20614;-40
2023/11/30 02:19:57;;;;;;;2.80;2.60;;;-1.40;99.90;;;;;;5081444;28;20162;-40
2023/11/30 02:22:22;;;;;;;4.82;3.15;;;-1.40;99.90;;;;;;5079707;28;20120;-43
2023/11/30 02:24:48;;;;;;;5.07;2.60;;;-1.40;99.90;;;;;;5075597;28;20070;-42
2023/11/30 02:27:14;;;;;;;3.05;2.80;;;-1.40;99.90;;;;;;5075907;28;20024;-39
2023/11/30 02:29:39;;;;;;;5.03;3.03;;;-1.40;99.90;;;;;;5071159;28;20031;-42
2023/11/30 02:32:05;;;;;;;4.22;3.72;;;-1.40;99.90;;;;;;5075748;28;20032;-43
2023/11/30 02:34:31;;;;;;;3.42;3.13;;;-1.40;99.90;;;;;;5080403;28;20546;-33
2023/11/30 02:36:56;;;;;;;5.22;3.28;;;-1.40;99.90;;;;;;5082105;28;20028;-31
2023/11/30 02:39:22;;;;;;;3.38;2.67;;;-1.50;99.90;;;;;;5082749;28;20040;-31
2023/11/30 02:41:47;;;;;;;3.58;3.20;;;-1.50;99.90;;;;;;5085486;28;20115;-31
2023/11/30 02:44:13;;;;;;;5.28;3.08;;;-1.50;99.90;;;;;;5081274;28;20032;-31
2023/11/30 02:46:38;;;;;;;4.30;3.08;;;-1.60;99.90;;;;;;5078973;28;20016;-30
2023/11/30 02:49:04;;;;;;;7.68;3.03;;;-1.50;99.90;;;;;;5076631;28;20401;-31
2023/11/30 02:51:29;;;;;;;2.70;2.50;;;-1.50;99.90;;;;;;5080360;28;20139;-34
2023/11/30 02:53:55;;;;;;;4.32;2.60;;;-1.50;99.90;;;;;;5073453;28;20028;-32
2023/11/30 02:56:21;;;;;;;6.90;2.50;;;-1.60;99.90;;;;;;5077632;28;20084;-32
2023/11/30 02:58:46;;;;;;;2.88;2.67;;;-1.60;99.90;;;;;;5076904;28;20045;-32
2023/11/30 03:01:12;;;;;;;2.90;2.70;;;-1.60;99.90;;;;;;5079009;28;20058;-32
2023/11/30 03:03:37;;;;;;;4.00;2.80;;;-1.60;99.90;;;;;;5081096;28;20033;-31
2023/11/30 03:06:11;;;;;;;3.03;2.70;;;-1.60;99.90;;;;;;5078522;28;20534;-31
2023/11/30 03:08:37;;;;;;;6.28;2.90;;;-1.60;99.90;;;;;;5079078;28;20033;-31
2023/11/30 03:11:03;;;;;;;4.40;3.13;;;-1.60;99.90;;;;;;5084437;28;20032;-30
2023/11/30 03:13:28;;;;;;;3.45;2.88;;;-1.60;99.90;;;;;;5080369;28;20147;-36
2023/11/30 03:15:54;;;;;;;2.67;2.47;;;-1.60;99.90;;;;;;5079083;28;20111;-31
2023/11/30 03:18:20;;;;;;;3.83;2.90;;;-1.50;99.90;;;;;;5085861;28;20031;-33
2023/11/30 03:20:45;;;;;;;2.63;2.42;;;-1.60;99.90;;;;;;5073468;28;20056;-31
2023/11/30 03:23:11;;;;;;;4.00;2.80;;;-1.70;99.90;;;;;;5075617;28;20032;-31
2023/11/30 03:25:39;;;;;;;3.42;2.65;;;-1.70;99.90;;;;;;5080975;28;20392;-30
2023/11/30 03:28:05;;;;;;;2.28;2.17;;;-1.60;99.90;;;;;;5080561;28;20492;-31
2023/11/30 03:30:30;;;;;;;3.65;2.50;;;-1.60;99.90;;;;;;5077207;28;20024;-33
2023/11/30 03:32:58;;;;;;;2.95;2.78;;;-1.60;99.90;;;;;;5077216;28;20114;-31
2023/11/30 03:35:24;;;;;;;4.25;2.70;;;-1.60;99.90;;;;;;5083369;28;20465;-31
2023/11/30 03:37:49;;;;;;;2.88;2.33;;;-1.60;99.90;;;;;;5084849;28;20039;-30
2023/11/30 03:40:15;;;;;;;3.70;2.80;;;-1.60;99.90;;;;;;5081820;28;20056;-31
2023/11/30 03:42:41;;;;;;;5.05;3.00;;;-1.60;99.90;;;;;;5073817;28;20377;-30
2023/11/30 03:45:07;;;;;;;3.88;2.85;;;-1.60;99.90;;;;;;5070486;28;20108;-32
2023/11/30 03:47:32;;;;;;;3.13;2.95;;;-1.60;99.90;;;;;;5071792;28;20440;-34
2023/11/30 03:49:58;;;;;;;3.90;2.92;;;-1.50;99.90;;;;;;5086710;28;20107;-31
2023/11/30 03:52:24;;;;;;;3.00;2.80;;;-1.50;99.90;;;;;;5084435;28;21012;-29
2023/11/30 03:54:49;;;;;;;3.10;2.70;;;-1.40;99.90;;;;;;5083295;28;20020;-31
2023/11/30 03:57:15;;;;;;;3.85;3.25;;;-1.40;99.90;;;;;;5078543;28;20056;-31
2023/11/30 03:59:40;;;;;;;8.57;2.50;;;-1.40;99.90;;;;;;5076016;28;20024;-33
2023/11/30 04:02:06;;;;;;;5.00;3.05;;;-1.40;99.90;;;;;;5081178;28;20046;-31
2023/11/30 04:04:32;;;;;;;3.65;3.25;;;-1.40;99.90;;;;;;5070652;28;20054;-32
2023/11/30 04:06:57;;;;;;;14.20;3.25;;;-1.30;99.90;;;;;;5078162;28;20701;-33
2023/11/30 04:09:23;;;;;;;2.58;2.28;;;-1.30;99.90;;;;;;5074710;28;20028;-35
2023/11/30 04:11:48;;;;;;;2.35;2.15;;;-1.40;99.90;;;;;;5074842;28;20028;-34
2023/11/30 04:14:14;;;;;;;3.50;2.38;;;-1.40;99.90;;;;;;5076189;28;20485;-33
2023/11/30 04:16:40;;;;;;;2.67;2.47;;;-1.40;99.90;;;;;;5074833;28;20107;-33
2023/11/30 04:19:06;;;;;;;3.60;3.30;;;-1.40;99.90;;;;;;5079067;28;20544;-34
2023/11/30 04:21:32;;;;;;;2.63;2.53;;;-1.40;99.90;;;;;;5074612;28;20064;-36
2023/11/30 04:23:57;;;;;;;4.85;3.80;;;-1.30;99.90;;;;;;5077477;28;20501;-33
2023/11/30 04:26:25;;;;;;;5.35;3.20;;;-1.30;99.90;;;;;;5072449;28;20029;-33
2023/11/30 04:28:50;;;;;;;3.28;3.00;;;-1.30;99.90;;;;;;5081546;28;20078;-33
2023/11/30 04:31:16;;;;;;;5.75;3.65;;;-1.30;99.90;;;;;;5071939;27;20055;-33
2023/11/30 04:33:41;;;;;;;3.38;3.08;;;-1.30;99.90;;;;;;5080612;28;20572;-33
2023/11/30 04:36:07;;;;;;;2.83;2.50;;;-1.20;99.90;;;;;;5081623;28;20059;-35
2023/11/30 04:38:33;;;;;;;3.63;2.85;;;-1.20;99.90;;;;;;5086542;28;20028;-33
2023/11/30 04:40:58;;;;;;;5.55;2.63;;;-1.20;99.90;;;;;;5085002;28;20028;-38
2023/11/30 04:43:24;;;;;;;3.35;3.03;;;-1.30;99.90;;;;;;5079447;28;20029;-32
2023/11/30 04:45:50;;;;;;;3.97;2.90;;;-1.40;99.90;;;;;;5075270;28;20635;-34
2023/11/30 04:48:16;;;;;;;3.88;2.92;;;-1.40;99.90;;;;;;5080860;28;20116;-35
2023/11/30 04:50:42;;;;;;;2.88;2.67;;;-1.30;99.90;;;;;;5079658;28;20028;-32
2023/11/30 04:53:07;;;;;;;5.97;2.60;;;-1.40;99.90;;;;;;5078519;28;20032;-31
2023/11/30 04:55:33;;;;;;;4.68;2.88;;;-1.40;99.90;;;;;;5073531;28;20665;-31
2023/11/30 04:57:58;;;;;;;3.17;2.88;;;-1.30;99.90;;;;;;5076957;28;20061;-31
2023/11/30 05:00:24;;;;;;;5.00;3.08;;;-1.30;99.90;;;;;;5080868;28;20033;-28
2023/11/30 05:02:55;;;;;;;4.63;2.97;;;-1.30;99.90;;;;;;5079628;28;20127;-28
2023/11/30 05:05:21;;;;;;;3.00;2.70;;;-1.20;99.90;;;;;;5077474;28;20629;-29
2023/11/30 05:07:48;;;;;;;2.83;2.55;;;-1.20;99.90;;;;;;5079383;28;20020;-28
2023/11/30 05:10:13;;;;;;;5.15;3.35;;;-1.20;99.90;;;;;;5083961;28;20032;-28
2023/11/30 05:12:39;;;;;;;4.85;3.20;;;-1.10;99.90;;;;;;5077707;28;20303;-31
2023/11/30 05:15:05;;;;;;;2.75;2.55;;;-1.10;99.90;;;;;;5082933;28;20035;-29
2023/11/30 05:17:32;;;;;;;3.97;3.00;;;-1.10;99.90;;;;;;5077678;28;20024;-30
2023/11/30 05:19:58;;;;;;;3.38;2.67;;;-1.10;99.90;;;;;;5076242;28;20040;-31
2023/11/30 05:22:23;;;;;;;3.45;2.70;;;-1.10;99.90;;;;;;5079523;28;20032;-30
2023/11/30 05:24:50;;;;;;;4.28;3.00;;;-1.00;99.90;;;;;;5073132;28;20025;-31
2023/11/30 05:27:16;;;;;;;5.50;3.85;;;-1.00;99.90;;;;;;5072313;28;20029;-30
2023/11/30 05:29:42;;;;;;;5.68;4.30;;;-1.00;99.90;;;;;;5079301;28;20032;-29
2023/11/30 05:32:08;;;;;;;5.43;3.33;;;-1.10;99.90;;;;;;5077061;27;20021;-30
2023/11/30 05:34:35;;;;;;;2.83;2.30;;;-1.10;99.90;;;;;;5077634;28;20038;-31
2023/11/30 05:37:03;;;;;;;6.45;4.50;;;-1.00;99.90;;;;;;5076437;28;20172;-33
2023/11/30 05:39:29;;;;;;;3.17;2.85;;;-1.00;99.90;;;;;;5074901;28;20127;-33
2023/11/30 05:41:55;;;;;;;5.03;3.13;;;-1.00;99.90;;;;;;5082657;28;20036;-32
2023/11/30 05:44:21;;;;;;;3.33;2.67;;;-1.10;99.90;;;;;;5077966;28;20429;-32
2023/11/30 05:46:48;;;;;;;3.72;2.88;;;-1.00;99.90;;;;;;5076894;28;20028;-32
2023/11/30 05:49:13;;;;;;;5.22;3.30;;;-1.00;99.90;;;;;;5079562;28;20032;-36
2023/11/30 05:51:40;;;;;;;4.75;3.22;;;-1.00;99.90;;;;;;5074179;28;20021;-33
2023/11/30 05:54:06;;;;;;;4.72;4.10;;;-1.00;99.90;;;;;;5073809;28;20441;-32
2023/11/30 05:56:31;;;;;;;4.18;3.20;;;-1.00;99.90;;;;;;5074736;28;20021;-34
2023/11/30 05:58:57;;;;;;;3.67;3.40;;;-1.00;99.90;;;;;;5074382;28;20033;-33
2023/11/30 06:01:23;;;;;;;4.30;3.53;;;-1.00;99.90;;;;;;5080499;27;20051;-32
2023/11/30 06:03:49;;;;;;;5.25;4.50;;;-1.00;99.90;;;;;;5069719;28;20115;-32
2023/11/30 06:06:14;;;;;;;6.50;4.05;;;-0.90;99.90;;;;;;5076572;28;20029;-34
2023/11/30 06:08:40;;;;;;;6.43;3.70;;;-1.00;99.90;;;;;;5073741;28;20029;-33
2023/11/30 06:11:06;;;;;;;8.43;5.22;;;-1.00;99.90;;;;;;5073010;28;20027;-33
2023/11/30 06:13:32;;;;;;;5.03;4.47;;;-1.00;99.90;;;;;;5070196;28;20036;-34
2023/11/30 06:15:57;;;;;;;7.82;6.07;;;-1.00;99.90;;;;;;5072669;28;20494;-34
2023/11/30 06:18:23;;;;;;;4.78;4.22;;;-1.00;99.90;;;;;;5070397;28;20030;-32
2023/11/30 06:20:49;;;;;;;4.38;3.65;;;-0.90;99.90;;;;;;5072633;28;20210;-32
2023/11/30 06:23:15;;;;;;;4.05;3.67;;;-0.90;99.90;;;;;;5068557;28;20082;-32
2023/11/30 06:25:42;;;;;;;3.13;2.90;;;-0.80;99.90;;;;;;5071872;28;20027;-33
2023/11/30 06:28:08;;;;;;;4.60;3.95;;;-0.80;99.90;;;;;;5079432;28;20328;-30
2023/11/30 06:30:34;;;;;;;3.03;2.75;;;-0.80;99.90;;;;;;5087267;27;20028;-30
2023/11/30 06:32:59;;;;;;;4.10;3.50;;;-0.80;99.90;;;;;;5084585;28;20508;-34
2023/11/30 06:35:25;;;;;;;3.63;3.33;;;-0.90;99.90;;;;;;5079018;28;20480;-32
2023/11/30 06:37:51;;;;;;;5.32;3.42;;;-1.00;99.90;;;;;;5066321;28;20032;-33
2023/11/30 06:40:17;;;;;;;2.33;2.22;;;-1.10;99.90;;;;;;5078590;28;20045;-31
2023/11/30 06:42:43;;;;;;;3.05;2.83;;;-1.10;99.90;;;;;;5073309;28;20036;-31
2023/11/30 06:45:09;;;;;;;5.80;4.75;;;-1.00;99.90;;;;;;5074738;28;20396;-34
2023/11/30 06:47:34;;;;;;;5.22;3.70;;;-1.00;99.90;;;;;;5073567;28;20074;-30
2023/11/30 06:50:00;;;;;;;4.88;3.50;;;-1.10;99.90;;;;;;5083450;28;20473;-34
2023/11/30 06:52:25;;;;;;;6.28;4.30;;;-1.00;99.90;;;;;;5076194;28;20028;-34
2023/11/30 06:54:51;;;;;;;6.43;4.72;;;-0.90;99.90;;;;;;5075069;28;20024;-35
2023/11/30 06:57:17;;;;;;;6.68;4.35;;;-1.00;99.90;;;;;;5081547;28;20105;-30
2023/11/30 06:59:43;;;;;;;4.10;3.60;;;-0.90;99.90;;;;;;5082786;28;20058;-30
2023/11/30 07:02:09;;;;;;;6.55;4.53;;;-0.80;99.90;;;;;;5077111;27;20486;-34
2023/11/30 07:04:35;;;;;;;8.85;6.07;;;-0.80;99.90;;;;;;5076839;28;20057;-31
2023/11/30 07:07:01;;;;;;;2.13;1.98;;;-0.80;99.90;;;;;;5076735;28;20443;-33
2023/11/30 07:09:28;;;;;;;6.63;3.67;;;-0.80;99.90;;;;;;5076210;28;20044;-34
2023/11/30 07:11:54;;;;;;;4.28;3.83;;;-0.80;99.90;;;;;;5074371;28;20074;-31
2023/11/30 07:14:19;;;;;;;5.50;3.97;;;-0.70;99.90;;;;;;5082076;28;20643;-31
2023/11/30 07:16:45;;;;;;;4.05;3.10;;;-0.80;99.90;;;;;;5084580;28;20032;-34
2023/11/30 07:19:11;;;;;;;5.35;4.13;;;-0.70;99.90;;;;;;5076396;28;20570;-30
2023/11/30 07:21:37;;;;;;;4.85;3.63;;;-0.70;99.90;;;;;;5085567;28;20528;-31
2023/11/30 07:24:03;;;;;;;3.58;3.22;;;-0.60;99.90;;;;;;5080662;28;20056;-31
2023/11/30 07:26:29;;;;;;;7.28;3.50;;;-0.60;99.90;;;;;;5085705;28;20110;-37
2023/11/30 07:28:55;;;;;;;3.72;3.35;;;-0.50;99.90;;;;;;5075105;28;20048;-33
2023/11/30 07:31:21;;;;;;;6.38;3.55;;;-0.50;99.90;;;;;;5076851;27;20032;-32
2023/11/30 07:33:48;;;;;;;4.90;3.55;;;-0.40;99.90;;;;;;5075661;28;20032;-32
2023/11/30 07:36:14;;;;;;;3.95;3.47;;;-0.40;99.90;;;;;;5078556;28;20028;-34
2023/11/30 07:38:40;;;;;;;4.38;3.25;;;-0.30;99.90;;;;;;5076209;28;20077;-33
2023/11/30 07:41:07;;;;;;;4.70;3.42;;;-0.30;99.90;;;;;;5076209;28;20039;-35
2023/11/30 07:43:32;;;;;;;4.63;4.18;;;-0.30;99.90;;;;;;5082872;28;20025;-32
2023/11/30 07:45:59;;;;;;;3.80;3.15;;;-0.30;99.90;;;;;;5080912;28;20039;-35
2023/11/30 07:48:25;;;;;;;6.03;4.30;;;-0.30;99.90;;;;;;5078862;28;20081;-35
2023/11/30 07:50:53;;;;;;;5.45;4.22;;;-0.20;99.90;;;;;;5076176;28;20027;-33
2023/11/30 07:53:22;;;;;;;4.97;4.30;;;-0.20;99.90;;;;;;5074349;28;20138;-32
2023/11/30 07:55:48;;;;;;;4.32;3.67;;;-0.10;99.90;;;;;;5081043;28;20078;-32
2023/11/30 07:58:14;;;;;;;5.65;3.33;;;-0.20;99.90;;;;;;5077451;28;20489;-32
2023/11/30 08:00:40;;;;;;;7.60;4.18;;;-0.20;99.90;;;;;;5074112;28;20036;-33
2023/11/30 08:03:08;;;;;;;5.30;4.40;;;-0.20;99.90;;;;;;5077248;28;20078;-33
2023/11/30 08:05:34;;;;;;;3.97;3.38;;;-0.20;99.90;;;;;;5070880;28;20016;-32
2023/11/30 08:08:00;;;;;;;7.20;4.07;;;-0.10;99.90;;;;;;5077457;28;20126;-36
2023/11/30 08:10:26;;;;;;;5.32;3.88;;;-0.10;99.90;;;;;;5078466;28;20029;-33
2023/11/30 08:12:51;;;;;;;5.50;3.80;;;-0.10;99.90;;;;;;5086333;28;20035;-35
2023/11/30 08:15:17;;;;;;;4.40;3.28;;;0.00;99.90;;;;;;5078400;28;20534;-33
2023/11/30 08:17:46;;;;;;;3.75;2.95;;;0.00;99.90;;;;;;5080790;28;20508;-32
2023/11/30 08:20:13;;;;;;;6.03;3.97;;;0.00;99.90;;;;;;5086115;28;20044;-35
2023/11/30 08:22:40;;;;;;;4.37;3.63;;;0.10;99.90;;;;;;5086097;28;20028;-33
2023/11/30 08:25:06;;;;;;;3.47;3.15;;;0.10;99.90;;;;;;5078465;28;20043;-34
2023/11/30 08:27:33;;;;;;;6.72;3.75;;;0.10;99.90;;;;;;5081864;28;20017;-36
2023/11/30 08:29:59;;;;;;;6.25;4.10;;;0.20;99.90;;;;;;5073094;28;20027;-38
2023/11/30 08:32:25;;;;;;;5.10;3.53;;;0.20;99.90;;;;;;5083647;28;20119;-33
2023/11/30 08:34:51;;;;;;;3.83;3.15;;;0.20;99.90;;;;;;5076429;28;20115;-35
2023/11/30 08:37:16;;;;;;;3.42;3.15;;;0.20;99.90;;;;;;5081006;28;20027;-41
2023/11/30 08:39:42;;;;;;;6.72;4.20;;;0.20;99.90;;;;;;5080185;28;20024;-40
2023/11/30 08:42:08;;;;;;;4.15;3.83;;;0.20;99.90;;;;;;5075321;28;20025;-42
2023/11/30 08:44:36;;;;;;;5.00;3.35;;;0.20;99.90;;;;;;5078892;28;20173;-42
2023/11/30 08:47:02;;;;;;;4.35;3.95;;;0.30;99.90;;;;;;5078752;28;20069;-32
2023/11/30 08:49:27;;;;;;;4.28;3.83;;;0.30;99.90;;;;;;5077804;28;20092;-31
2023/11/30 08:51:53;;;;;;;4.95;3.50;;;0.40;99.90;;;;;;5080054;28;20036;-31
2023/11/30 08:54:21;;;;;;;4.57;3.22;;;0.40;99.90;;;;;;5075397;28;20162;-30
2023/11/30 08:56:47;;;;;;;4.32;3.55;;;0.40;99.90;;;;;;5087192;28;20040;-31
2023/11/30 08:59:13;;;;;;;4.95;3.38;;;0.30;99.90;;;;;;5087838;28;20479;-33
2023/11/30 09:01:39;;;;;;;4.75;3.50;;;0.30;99.90;;;;;;5086580;28;20047;-32
2023/11/30 09:04:05;;;;;;;3.60;3.05;;;0.20;99.90;;;;;;5086981;28;20380;-31
2023/11/30 09:06:32;;;;;;;6.15;4.72;;;0.20;99.90;;;;;;5088327;28;20035;-34
2023/11/30 09:08:59;;;;;;;5.63;3.80;;;0.20;99.90;;;;;;5086612;28;20028;-33
2023/11/30 09:11:24;;;;;;;3.90;3.58;;;0.20;99.90;;;;;;5083287;28;20488;-31
2023/11/30 09:13:52;;;;;;;5.97;3.80;;;0.20;99.90;;;;;;5088328;28;20041;-31
2023/11/30 09:16:17;;;;;;;5.97;3.45;;;0.20;99.90;;;;;;5078748;28;20016;-31
2023/11/30 09:18:43;;;;;;;4.82;3.97;;;0.20;99.90;;;;;;5081217;28;20436;-31
2023/11/30 09:21:09;;;;;;;6.60;3.70;;;0.20;99.90;;;;;;5084434;28;20807;-32
2023/11/30 09:23:34;;;;;;;4.05;3.67;;;0.10;99.90;;;;;;5081517;28;20398;-31
2023/11/30 09:26:06;;;;;;;5.35;3.38;;;0.10;99.90;;;;;;5079850;28;20616;-34
2023/11/30 09:28:32;;;;;;;4.75;4.10;;;0.10;99.90;;;;;;5076482;28;20025;-31
2023/11/30 09:31:01;;;;;;;4.85;3.72;;;0.10;99.90;;;;;;5086096;28;20431;-32
2023/11/30 09:33:28;;;;;;;5.78;3.53;;;0.10;99.90;;;;;;5086040;28;20040;-30
2023/11/30 09:35:55;;;;;;;8.75;4.22;;;0.10;99.90;;;;;;5079552;28;20474;-31
2023/11/30 09:38:21;;;;;;;6.43;5.82;;;0.20;99.90;;;;;;5079339;28;20035;-30
2023/11/30 09:40:46;;;;;;;8.63;5.10;;;0.20;99.90;;;;;;5086014;28;20406;-31
2023/11/30 09:43:16;;;;;;;7.00;4.18;;;0.20;99.90;;;;;;5088214;28;20032;-31
2023/11/30 09:45:44;;;;;;;5.20;4.43;;;0.20;99.90;;;;;;5078194;28;20021;-31
2023/11/30 09:48:10;;;;;;;6.28;3.90;;;0.30;99.90;;;;;;5078716;28;20043;-33
2023/11/30 09:50:36;;;;;;;5.18;4.65;;;0.30;99.90;;;;;;5079573;28;20462;-31
2023/11/30 09:53:02;;;;;;;10.75;4.72;;;0.40;99.90;;;;;;5087555;28;20081;-31
2023/11/30 09:55:30;;;;;;;6.90;4.53;;;0.40;99.90;;;;;;5085978;28;20515;-32
2023/11/30 09:57:55;;;;;;;6.05;5.45;;;0.40;99.90;;;;;;5074359;28;20027;-40
2023/11/30 10:00:21;;;;;;;6.10;5.10;;;0.50;99.90;;;;;;5074780;28;20105;-40
2023/11/30 10:02:53;;;;;;;6.10;4.65;;;0.50;99.90;;;;;;5078738;27;20068;-40
2023/11/30 10:05:18;;;;;;;4.63;3.95;;;0.60;99.90;;;;;;5075986;28;20032;-40
2023/11/30 10:07:44;;;;;;;7.53;4.55;;;0.60;99.90;;;;;;5081060;28;20046;-41
2023/11/30 10:10:10;;;;;;;4.25;3.88;;;0.70;99.90;;;;;;5075389;28;20031;-36
2023/11/30 10:12:35;;;;;;;6.78;4.70;;;0.80;99.90;;;;;;5081051;28;20107;-39
2023/11/30 10:15:01;;;;;;;5.18;4.13;;;0.80;99.90;;;;;;5081140;28;20039;-40
2023/11/30 10:17:28;;;;;;;5.10;3.45;;;0.80;99.90;;;;;;5080289;28;20024;-39
2023/11/30 10:19:55;;;;;;;4.65;3.38;;;0.80;99.90;;;;;;5078461;28;20056;-40
2023/11/30 10:22:22;;;;;;;3.45;3.08;;;0.80;99.90;;;;;;5081190;28;20024;-40
2023/11/30 10:24:51;;;;;;;5.15;3.60;;;0.80;99.90;;;;;;5074794;28;20036;-41
2023/11/30 10:27:21;;;;;;;3.60;3.30;;;0.70;99.90;;;;;;5084708;28;20050;-40
2023/11/30 10:29:48;;;;;;;7.40;3.97;;;0.60;99.90;;;;;;5077347;28;20469;-39
2023/11/30 10:32:15;;;;;;;3.45;3.13;;;0.60;99.90;;;;;;5078289;28;20044;-40
2023/11/30 10:34:47;;;;;;;4.35;3.95;;;0.60;99.90;;;;;;5085759;28;20024;-39
2023/11/30 10:37:23;;;;;;;4.28;3.78;;;0.60;99.90;;;;;;5082962;28;20020;-41
2023/11/30 10:40:10;;;;;;;5.85;5.20;;;0.70;99.90;;;;;;5078291;28;20063;-35
2023/11/30 10:42:35;;;;;;;6.50;4.47;;;0.70;99.90;;;;;;5078363;28;20641;-39
2023/11/30 10:45:04;;;;;;;10.27;6.88;;;0.70;99.90;;;;;;5076985;28;20027;-40
2023/11/30 10:47:30;;;;;;;9.90;6.40;;;0.60;99.90;;;;;;5059084;28;20509;-38
2023/11/30 10:49:59;;;;;;;10.13;6.47;;;0.60;99.90;;;;;;5081233;28;20043;-40
2023/11/30 10:52:30;;;;;;;16.42;6.82;;;0.60;99.90;;;;;;5085282;28;20024;-40
2023/11/30 10:55:04;;;;;;;10.18;7.03;;;0.60;99.90;;;;;;5081439;28;20028;-41
2023/11/30 10:57:31;;;;;;;8.77;6.50;;;0.70;99.90;;;;;;5079698;28;20029;-37
2023/11/30 11:00:01;;;;;;;7.47;6.15;;;0.70;99.90;;;;;;5073199;28;20032;-37
2023/11/30 11:02:49;;;;;;;11.70;7.00;;;0.70;99.90;;;;;;5075743;28;20032;-38
2023/11/30 11:05:18;;;;;;;7.97;6.22;;;0.80;99.90;;;;;;5078936;28;20532;-38
2023/11/30 11:07:45;;;;;;;10.07;6.93;;;0.80;99.90;;;;;;5080926;28;20418;-29
2023/11/30 11:10:23;;;;;;;7.75;6.00;;;0.80;99.90;;;;;;5076794;28;20074;-32
2023/11/30 11:12:50;;;;;;;10.48;7.90;;;0.80;99.90;;;;;;5075430;28;20127;-35
2023/11/30 11:15:22;;;;;;;9.70;7.70;;;0.80;99.90;;;;;;5079255;28;20031;-31
2023/11/30 11:17:50;;;;;;;8.55;6.35;;;0.80;99.90;;;;;;5081751;28;20031;-29
2023/11/30 11:20:25;;;;;;;8.80;6.65;;;0.80;99.90;;;;;;5073822;28;20036;-35
2023/11/30 11:23:06;;;;;;;7.13;5.70;;;0.80;99.90;;;;;;5075176;28;20497;-28
2023/11/30 11:25:41;;;;;;;8.35;6.30;;;0.80;99.90;;;;;;5081568;28;20024;-34
2023/11/30 11:28:07;;;;;;;6.68;5.82;;;0.80;99.90;;;;;;5076417;28;20048;-29
2023/11/30 11:30:40;;;;;;;5.82;4.90;;;0.90;99.90;;;;;;5082222;28;20047;-31
2023/11/30 11:33:09;;;;;;;6.50;5.18;;;0.90;99.90;;;;;;5077635;28;20028;-29
2023/11/30 11:35:34;;;;;;;9.65;6.85;;;0.90;99.90;;;;;;5071898;28;20028;-33
2023/11/30 11:38:00;;;;;;;10.93;7.10;;;0.90;99.90;;;;;;5077103;28;20394;-32
2023/11/30 11:40:26;;;;;;;6.85;5.28;;;0.90;99.90;;;;;;5080408;28;20466;-33
2023/11/30 11:42:52;;;;;;;9.35;5.88;;;0.90;99.90;;;;;;5082175;28;20027;-31
2023/11/30 11:45:18;;;;;;;7.95;5.47;;;0.90;99.90;;;;;;5080952;28;20522;-30
2023/11/30 11:47:44;;;;;;;8.77;6.28;;;1.00;99.90;;;;;;5078739;28;20066;-29
2023/11/30 11:50:12;;;;;;;6.85;6.13;;;1.00;99.90;;;;;;5080823;28;20032;-29
2023/11/30 11:52:39;;;;;;;6.45;5.72;;;1.00;99.90;;;;;;5074430;28;20036;-29
2023/11/30 11:55:10;;;;;;;8.27;6.07;;;1.00;99.90;;;;;;5082198;28;20437;-30
2023/11/30 11:57:43;;;;;;;9.05;5.43;;;1.00;99.90;;;;;;5075901;28;20103;-29
2023/11/30 12:00:16;;;;;;;7.90;6.10;;;1.10;99.90;;;;;;5075219;28;20119;-30
2023/11/30 12:02:42;;;;;;;10.65;6.45;;;1.10;99.90;;;;;;5078690;28;20501;-30
2023/11/30 12:05:13;;;;;;;12.70;5.53;;;1.10;99.90;;;;;;5085032;28;20051;-31
2023/11/30 12:07:49;;;;;;;5.75;5.00;;;1.10;99.90;;;;;;5075542;28;20486;-30
2023/11/30 12:10:32;;;;;;;5.32;4.82;;;1.20;99.90;;;;;;5074410;28;20025;-31
2023/11/30 12:13:00;;;;;;;5.95;4.78;;;1.20;99.90;;;;;;5075127;28;20485;-29
2023/11/30 12:15:25;;;;;;;6.00;4.20;;;1.20;99.90;;;;;;5072129;28;20020;-29
2023/11/30 12:17:52;;;;;;;7.30;5.00;;;1.20;99.90;;;;;;5073420;28;20523;-41
2023/11/30 12:20:18;;;;;;;6.28;5.32;;;1.20;99.90;;;;;;5071856;28;20424;-39
2023/11/30 12:22:44;;;;;;;6.18;5.22;;;1.10;99.90;;;;;;5076539;28;20028;-40
2023/11/30 12:25:10;;;;;;;6.35;5.20;;;1.20;99.90;;;;;;5075178;28;20389;-38
2023/11/30 12:27:36;;;;;;;7.00;5.40;;;1.20;99.90;;;;;;5069207;28;20008;-38
2023/11/30 12:30:02;;;;;;;6.40;5.80;;;1.20;99.90;;;;;;5074322;28;20548;-38
2023/11/30 12:32:27;;;;;;;7.50;6.15;;;1.20;99.90;;;;;;5072123;28;20108;-38
2023/11/30 12:34:56;;;;;;;8.55;6.50;;;1.20;99.90;;;;;;5072597;28;20113;-37
2023/11/30 12:37:22;;;;;;;10.20;6.82;;;1.20;99.90;;;;;;5076604;28;20023;-39
2023/11/30 12:39:48;;;;;;;11.18;7.13;;;1.20;99.90;;;;;;5074054;28;20032;-38
2023/11/30 12:42:13;;;;;;;10.32;6.70;;;1.20;99.90;;;;;;5075489;28;20047;-38
2023/11/30 12:44:39;;;;;;;13.48;6.78;;;1.30;99.90;;;;;;5077740;28;20028;-37
2023/11/30 12:47:05;;;;;;;12.48;6.63;;;1.30;99.90;;;;;;5074870;28;20013;-37